Time;durP1;ratioP1;P1;durP2;ratioP2;P2;SDS_P1;SDS_P2;PMS_P1;PMS_P2;Temp;Humidity;BMP_temperature;BMP_pressure;BME280_temperature;BME280_humidity;BME280_pressure;Samples;Min_cycle;Max_cycle;Signal;HPM_P1;HPM_P2
2022/04/15 00:02:01;;;;;;;9.97;9.03;;;14.40;82.60;;;;;;5095556;28;20461;-70
2022/04/15 00:04:29;;;;;;;9.67;8.67;;;14.40;82.30;;;;;;5095782;28;20453;-70
2022/04/15 00:06:55;;;;;;;9.67;8.47;;;14.40;82.30;;;;;;5095676;28;20453;-70
2022/04/15 00:09:24;;;;;;;8.73;7.87;;;14.30;82.30;;;;;;5095565;28;20491;-71
2022/04/15 00:11:51;;;;;;;8.57;7.40;;;14.30;82.40;;;;;;5096208;28;20465;-71
2022/04/15 00:14:18;;;;;;;9.43;7.63;;;14.30;82.40;;;;;;5094336;28;20520;-71
2022/04/15 00:16:45;;;;;;;8.80;7.90;;;14.20;82.60;;;;;;5094950;28;20456;-71
2022/04/15 00:19:13;;;;;;;10.10;9.20;;;14.10;82.60;;;;;;5095743;28;20452;-71
2022/04/15 00:21:40;;;;;;;8.73;7.90;;;14.10;83.00;;;;;;5095191;28;20483;-71
2022/04/15 00:24:07;;;;;;;9.50;8.43;;;14.10;83.30;;;;;;5094640;28;20449;-71
2022/04/15 00:26:35;;;;;;;8.73;8.03;;;14.10;83.10;;;;;;5094653;28;20440;-70
2022/04/15 00:29:05;;;;;;;10.83;9.07;;;14.10;83.00;;;;;;5095109;28;20987;-70
2022/04/15 00:31:32;;;;;;;17.13;9.90;;;14.00;83.20;;;;;;5094790;28;20437;-71
2022/04/15 00:33:59;;;;;;;11.83;10.10;;;14.00;83.40;;;;;;5094606;28;20451;-71
2022/04/15 00:36:26;;;;;;;9.23;8.23;;;14.00;83.50;;;;;;5094740;28;20477;-71
2022/04/15 00:38:52;;;;;;;11.20;10.07;;;14.00;83.50;;;;;;5098561;28;20444;-71
2022/04/15 00:41:19;;;;;;;10.67;9.67;;;13.90;83.40;;;;;;5097854;28;20461;-70
2022/04/15 00:43:47;;;;;;;9.70;8.83;;;13.90;83.80;;;;;;5094902;28;20452;-70
2022/04/15 00:46:14;;;;;;;10.67;9.60;;;13.80;83.80;;;;;;5093964;28;20444;-71
2022/04/15 00:48:41;;;;;;;9.80;8.93;;;13.80;84.10;;;;;;5094358;28;20495;-71
2022/04/15 00:51:08;;;;;;;10.90;9.80;;;13.80;84.20;;;;;;5096649;28;20469;-70
2022/04/15 00:53:34;;;;;;;10.47;9.37;;;13.70;84.00;;;;;;5092997;28;20461;-71
2022/04/15 00:56:03;;;;;;;9.63;8.83;;;13.70;84.30;;;;;;5093630;28;20451;-71
2022/04/15 00:58:33;;;;;;;9.30;8.50;;;13.70;84.40;;;;;;5093785;28;20498;-71
2022/04/15 01:01:02;;;;;;;11.63;8.87;;;13.60;84.40;;;;;;5094001;28;20477;-71
2022/04/15 01:03:30;;;;;;;11.77;9.77;;;13.60;84.60;;;;;;5093380;28;20448;-71
2022/04/15 01:05:59;;;;;;;11.03;9.93;;;13.60;84.80;;;;;;5093693;28;20456;-71
2022/04/15 01:08:29;;;;;;;11.17;8.97;;;13.50;84.80;;;;;;5094211;28;20480;-71
2022/04/15 01:10:58;;;;;;;13.30;9.03;;;13.50;85.20;;;;;;5093265;28;20464;-71
2022/04/15 01:13:26;;;;;;;9.60;8.63;;;13.40;85.00;;;;;;5093602;28;20445;-71
2022/04/15 01:15:55;;;;;;;9.97;9.07;;;13.40;84.90;;;;;;5093908;28;20456;-71
2022/04/15 01:18:24;;;;;;;11.30;9.27;;;13.40;85.20;;;;;;5093890;28;20440;-70
2022/04/15 01:20:53;;;;;;;11.33;10.03;;;13.30;85.30;;;;;;5093140;28;20468;-70
2022/04/15 01:23:22;;;;;;;14.47;9.67;;;13.30;85.40;;;;;;5091429;28;20449;-71
2022/04/15 01:25:49;;;;;;;11.43;10.23;;;13.30;85.30;;;;;;5092802;28;20437;-71
2022/04/15 01:28:17;;;;;;;11.43;9.70;;;13.20;85.30;;;;;;5093186;28;20499;-70
2022/04/15 01:30:45;;;;;;;10.40;9.20;;;13.20;85.80;;;;;;5092996;28;20448;-70
2022/04/15 01:33:12;;;;;;;10.73;9.50;;;13.20;86.00;;;;;;5093416;28;20457;-70
2022/04/15 01:35:39;;;;;;;11.87;10.63;;;13.10;86.20;;;;;;5092827;28;20449;-70
2022/04/15 01:38:10;;;;;;;11.70;10.40;;;13.10;86.40;;;;;;5093367;28;20495;-71
2022/04/15 01:40:39;;;;;;;11.77;10.53;;;13.10;86.40;;;;;;5093660;28;20493;-71
2022/04/15 01:43:07;;;;;;;11.43;10.30;;;13.10;86.70;;;;;;5093323;28;20452;-71
2022/04/15 01:45:34;;;;;;;12.13;10.63;;;13.00;86.60;;;;;;5093675;28;20828;-70
2022/04/15 01:48:00;;;;;;;12.90;10.60;;;13.00;86.50;;;;;;5093606;28;20445;-70
2022/04/15 01:50:29;;;;;;;11.50;9.87;;;13.00;86.60;;;;;;5092879;28;20477;-70
2022/04/15 01:52:56;;;;;;;14.60;10.47;;;12.90;86.50;;;;;;5094080;28;20441;-71
2022/04/15 01:55:22;;;;;;;12.67;11.37;;;12.90;86.40;;;;;;5093288;28;20867;-71
2022/04/15 01:57:51;;;;;;;12.07;10.87;;;12.80;86.40;;;;;;5092976;28;20455;-71
2022/04/15 02:00:18;;;;;;;12.50;11.30;;;12.80;86.60;;;;;;5092400;28;20460;-71
2022/04/15 02:02:45;;;;;;;12.43;11.20;;;12.80;86.80;;;;;;5092989;28;20463;-70
2022/04/15 02:05:12;;;;;;;12.80;11.47;;;12.70;87.00;;;;;;5092652;28;20855;-71
2022/04/15 02:07:38;;;;;;;13.07;11.67;;;12.70;86.90;;;;;;5092855;28;20453;-71
2022/04/15 02:10:06;;;;;;;11.90;10.80;;;12.70;86.80;;;;;;5092968;28;20503;-71
2022/04/15 02:12:33;;;;;;;12.00;10.60;;;12.70;86.70;;;;;;5092273;28;20461;-70
2022/04/15 02:15:01;;;;;;;12.73;11.40;;;12.70;86.40;;;;;;5092615;28;20449;-70
2022/04/15 02:17:28;;;;;;;11.63;10.50;;;12.70;86.30;;;;;;5092450;28;20453;-70
2022/04/15 02:19:55;;;;;;;11.10;10.00;;;12.60;86.40;;;;;;5092178;28;20510;-69
2022/04/15 02:22:21;;;;;;;11.03;9.93;;;12.60;86.30;;;;;;5092608;28;20483;-71
2022/04/15 02:24:48;;;;;;;11.87;10.87;;;12.50;86.40;;;;;;5092703;28;20444;-71
2022/04/15 02:27:15;;;;;;;12.90;11.57;;;12.50;86.60;;;;;;5093442;28;20445;-71
2022/04/15 02:29:41;;;;;;;11.77;10.37;;;12.50;86.80;;;;;;5093058;28;20551;-71
2022/04/15 02:32:10;;;;;;;11.57;10.40;;;12.50;86.80;;;;;;5092445;28;20476;-70
2022/04/15 02:34:37;;;;;;;13.70;11.13;;;12.40;86.90;;;;;;5092909;28;20451;-70
2022/04/15 02:37:04;;;;;;;11.83;10.50;;;12.40;87.00;;;;;;5093499;28;20433;-71
2022/04/15 02:39:32;;;;;;;12.43;10.13;;;12.40;87.10;;;;;;5092717;28;20463;-70
2022/04/15 02:42:00;;;;;;;11.37;9.10;;;12.40;87.10;;;;;;5083294;28;20469;-70
2022/04/15 02:44:27;;;;;;;10.50;9.33;;;12.30;87.00;;;;;;5073789;28;20455;-70
2022/04/15 02:46:57;;;;;;;10.60;9.50;;;12.30;87.40;;;;;;5073175;28;20457;-70
2022/04/15 02:49:26;;;;;;;10.53;9.53;;;12.30;87.30;;;;;;5073604;28;20492;-70
2022/04/15 02:51:53;;;;;;;11.07;9.97;;;12.30;87.20;;;;;;5073642;28;20511;-70
2022/04/15 02:54:20;;;;;;;10.50;9.23;;;12.20;87.30;;;;;;5073342;28;20944;-70
2022/04/15 02:56:47;;;;;;;10.43;9.43;;;12.20;87.50;;;;;;5073791;28;20456;-70
2022/04/15 02:59:16;;;;;;;10.77;9.67;;;12.20;87.70;;;;;;5073527;28;20448;-70
2022/04/15 03:01:44;;;;;;;10.90;9.10;;;12.10;87.80;;;;;;5073550;28;20607;-70
2022/04/15 03:04:11;;;;;;;10.47;9.37;;;12.10;88.00;;;;;;5073376;28;20437;-70
2022/04/15 03:06:39;;;;;;;10.00;9.10;;;12.00;88.00;;;;;;5073283;28;20510;-70
2022/04/15 03:09:06;;;;;;;9.90;8.90;;;12.00;88.40;;;;;;5073368;28;20487;-70
2022/04/15 03:11:36;;;;;;;11.27;10.20;;;11.90;88.60;;;;;;5073141;28;20500;-70
2022/04/15 03:14:04;;;;;;;11.90;10.60;;;12.00;88.40;;;;;;5073226;28;20483;-70
2022/04/15 03:16:30;;;;;;;11.37;10.23;;;12.00;88.70;;;;;;5073260;28;20452;-70
2022/04/15 03:18:57;;;;;;;13.50;10.00;;;11.90;88.50;;;;;;5073136;28;20453;-70
2022/04/15 03:21:24;;;;;;;12.63;11.30;;;11.90;88.60;;;;;;5073115;28;20491;-70
2022/04/15 03:23:52;;;;;;;13.10;10.83;;;11.90;88.60;;;;;;5073144;28;20453;-70
2022/04/15 03:26:19;;;;;;;12.90;11.17;;;11.90;88.60;;;;;;5073165;28;20452;-70
2022/04/15 03:28:46;;;;;;;13.47;11.73;;;11.80;88.80;;;;;;5072821;28;20796;-70
2022/04/15 03:31:13;;;;;;;14.13;12.10;;;11.80;89.00;;;;;;5073032;28;20468;-70
2022/04/15 03:33:43;;;;;;;13.10;11.80;;;11.80;89.10;;;;;;5075708;28;20448;-70
2022/04/15 03:36:09;;;;;;;14.70;13.30;;;11.80;89.10;;;;;;5077085;28;20448;-70
2022/04/15 03:38:36;;;;;;;14.93;12.73;;;11.80;89.30;;;;;;5076977;28;20445;-70
2022/04/15 03:41:04;;;;;;;13.13;11.13;;;11.80;89.20;;;;;;5076682;28;20465;-70
2022/04/15 03:43:32;;;;;;;15.00;11.00;;;11.70;89.10;;;;;;5077198;28;20480;-70
2022/04/15 03:45:59;;;;;;;14.33;12.37;;;11.70;89.30;;;;;;5077159;28;20463;-70
2022/04/15 03:48:26;;;;;;;12.13;10.97;;;11.70;89.40;;;;;;5076844;28;21021;-70
2022/04/15 03:50:53;;;;;;;15.40;13.80;;;11.60;89.40;;;;;;5076825;28;20538;-70
2022/04/15 03:53:20;;;;;;;13.00;11.10;;;11.60;89.80;;;;;;5076637;28;20869;-70
2022/04/15 03:55:47;;;;;;;13.57;12.10;;;11.70;90.10;;;;;;5076451;28;20468;-70
2022/04/15 03:58:16;;;;;;;13.67;12.27;;;11.60;90.00;;;;;;5076575;28;20460;-70
2022/04/15 04:00:43;;;;;;;13.50;12.17;;;11.70;90.00;;;;;;5076376;28;20483;-70
2022/04/15 04:03:10;;;;;;;12.10;9.80;;;11.70;90.10;;;;;;5076433;28;20501;-70
2022/04/15 04:05:37;;;;;;;12.77;11.57;;;11.60;89.80;;;;;;5076368;28;20460;-70
2022/04/15 04:08:04;;;;;;;12.30;11.00;;;11.60;89.90;;;;;;5075920;28;20963;-70
2022/04/15 04:10:31;;;;;;;11.60;10.20;;;11.50;90.00;;;;;;5075855;28;21052;-70
2022/04/15 04:12:58;;;;;;;9.30;8.30;;;11.50;90.20;;;;;;5076193;28;20449;-70
2022/04/15 04:15:26;;;;;;;11.27;9.20;;;11.50;90.20;;;;;;5076108;28;20535;-70
2022/04/15 04:17:52;;;;;;;11.53;10.43;;;11.50;90.20;;;;;;5076147;28;20491;-70
2022/04/15 04:20:19;;;;;;;11.80;10.60;;;11.40;90.10;;;;;;5075895;28;20449;-70
2022/04/15 04:22:46;;;;;;;12.77;11.47;;;11.40;90.10;;;;;;5075828;28;20449;-70
2022/04/15 04:25:13;;;;;;;12.73;9.90;;;11.40;90.20;;;;;;5075997;28;20437;-70
2022/04/15 04:27:41;;;;;;;12.20;9.70;;;11.30;90.30;;;;;;5075983;28;20448;-70
2022/04/15 04:30:10;;;;;;;14.13;10.93;;;11.30;90.20;;;;;;5075632;28;20481;-70
2022/04/15 04:32:38;;;;;;;12.70;11.03;;;11.30;90.30;;;;;;5075659;28;20480;-70
2022/04/15 04:35:07;;;;;;;12.30;11.10;;;11.20;90.30;;;;;;5075572;28;20453;-70
2022/04/15 04:37:34;;;;;;;11.93;10.63;;;11.20;90.30;;;;;;5075790;28;20509;-70
2022/04/15 04:40:02;;;;;;;12.13;10.73;;;11.20;90.30;;;;;;5075385;28;20816;-70
2022/04/15 04:42:29;;;;;;;13.60;10.57;;;11.20;90.40;;;;;;5075601;28;20476;-70
2022/04/15 04:44:56;;;;;;;14.53;11.60;;;11.20;90.40;;;;;;5074517;28;20448;-70
2022/04/15 04:47:23;;;;;;;12.57;11.03;;;11.20;90.40;;;;;;5075169;28;20952;-70
2022/04/15 04:49:52;;;;;;;11.67;10.40;;;11.20;90.40;;;;;;5075500;28;20484;-69
2022/04/15 04:52:19;;;;;;;12.37;10.00;;;11.20;90.50;;;;;;5075316;28;20555;-69
2022/04/15 04:54:46;;;;;;;11.83;10.73;;;11.20;90.70;;;;;;5075245;28;20456;-69
2022/04/15 04:57:13;;;;;;;11.17;10.07;;;11.10;90.60;;;;;;5075230;28;20444;-69
2022/04/15 04:59:40;;;;;;;11.23;10.03;;;11.20;91.10;;;;;;5075186;28;20449;-69
2022/04/15 05:02:09;;;;;;;11.37;9.70;;;11.10;90.70;;;;;;5075424;28;20477;-70
2022/04/15 05:04:36;;;;;;;14.60;10.30;;;11.10;90.80;;;;;;5075240;28;20495;-70
2022/04/15 05:07:05;;;;;;;12.40;10.57;;;11.10;91.00;;;;;;5075234;28;20444;-70
2022/04/15 05:09:32;;;;;;;13.13;10.93;;;11.10;91.10;;;;;;5074681;28;20517;-69
2022/04/15 05:11:59;;;;;;;11.80;9.50;;;11.10;91.30;;;;;;5075145;28;20464;-69
2022/04/15 05:14:26;;;;;;;11.33;10.20;;;11.10;91.30;;;;;;5074879;28;20948;-69
2022/04/15 05:16:52;;;;;;;12.17;10.93;;;11.10;91.40;;;;;;5075172;28;20452;-70
2022/04/15 05:19:19;;;;;;;12.20;10.90;;;11.10;91.60;;;;;;5075038;28;20467;-69
2022/04/15 05:21:46;;;;;;;13.17;11.77;;;11.10;91.70;;;;;;5074908;28;20471;-69
2022/04/15 05:24:14;;;;;;;13.03;11.40;;;11.20;91.90;;;;;;5074902;28;20440;-69
2022/04/15 05:26:41;;;;;;;15.63;11.30;;;11.20;92.00;;;;;;5074689;28;20449;-69
2022/04/15 05:29:08;;;;;;;13.17;11.87;;;11.30;92.20;;;;;;5074705;28;20449;-69
2022/04/15 05:31:35;;;;;;;13.97;11.83;;;11.30;92.10;;;;;;5074527;28;20528;-69
2022/04/15 05:34:02;;;;;;;12.70;11.40;;;11.30;92.20;;;;;;5074667;28;20453;-69
2022/04/15 05:36:29;;;;;;;15.50;11.77;;;11.40;92.30;;;;;;5074523;28;20441;-69
2022/04/15 05:38:56;;;;;;;13.03;10.83;;;11.40;92.50;;;;;;5074553;28;20452;-69
2022/04/15 05:41:25;;;;;;;15.47;12.27;;;11.50;92.80;;;;;;5074689;28;20815;-69
2022/04/15 05:43:52;;;;;;;13.33;11.93;;;11.60;93.00;;;;;;5074835;28;20919;-69
2022/04/15 05:46:19;;;;;;;16.10;12.53;;;11.60;93.30;;;;;;5074481;28;20506;-69
2022/04/15 05:48:45;;;;;;;18.83;13.63;;;11.70;93.60;;;;;;5073977;28;20867;-69
2022/04/15 05:51:12;;;;;;;25.93;15.80;;;11.70;93.90;;;;;;5074433;28;20489;-68
2022/04/15 05:53:39;;;;;;;19.87;16.43;;;11.80;94.40;;;;;;5074340;28;20521;-69
2022/04/15 05:56:06;;;;;;;19.97;16.13;;;11.90;94.80;;;;;;5073792;28;20453;-68
2022/04/15 05:58:34;;;;;;;20.80;16.20;;;12.00;94.80;;;;;;5073987;28;20452;-68
2022/04/15 06:01:00;;;;;;;20.93;16.07;;;12.10;95.30;;;;;;5074075;28;20460;-69
2022/04/15 06:03:32;;;;;;;20.63;17.40;;;12.20;95.70;;;;;;5073778;28;20845;-69
2022/04/15 06:05:59;;;;;;;20.50;17.83;;;12.20;96.00;;;;;;5074009;28;20430;-68
2022/04/15 06:08:26;;;;;;;19.27;17.07;;;12.30;96.20;;;;;;5074217;28;20476;-69
2022/04/15 06:10:53;;;;;;;20.77;17.07;;;12.30;96.40;;;;;;5073931;28;20910;-69
2022/04/15 06:13:22;;;;;;;21.13;18.50;;;12.40;96.50;;;;;;5073516;28;20936;-69
2022/04/15 06:15:53;;;;;;;20.50;17.97;;;12.40;96.80;;;;;;5073894;28;20452;-69
2022/04/15 06:18:20;;;;;;;20.37;18.30;;;12.50;97.10;;;;;;5073963;28;20502;-69
2022/04/15 06:20:47;;;;;;;23.53;19.07;;;12.50;97.20;;;;;;5073722;28;20436;-69
2022/04/15 06:23:15;;;;;;;27.03;18.87;;;12.60;97.40;;;;;;5073480;28;20476;-69
2022/04/15 06:25:42;;;;;;;29.13;21.60;;;12.60;97.50;;;;;;5073337;28;20948;-69
2022/04/15 06:28:09;;;;;;;32.43;24.03;;;12.70;97.70;;;;;;5073601;28;20468;-69
2022/04/15 06:30:36;;;;;;;29.20;22.57;;;12.80;97.70;;;;;;5073315;28;20892;-69
2022/04/15 06:33:06;;;;;;;34.10;26.53;;;12.80;97.30;;;;;;5073511;28;20978;-69
2022/04/15 06:35:33;;;;;;;41.10;28.70;;;12.90;97.50;;;;;;5073809;28;20510;-69
2022/04/15 06:38:00;;;;;;;42.23;29.13;;;12.90;97.10;;;;;;5073696;28;20451;-69
2022/04/15 06:40:27;;;;;;;44.63;33.50;;;13.00;96.90;;;;;;5073583;28;20443;-69
2022/04/15 06:42:53;;;;;;;48.07;33.60;;;13.00;96.90;;;;;;5073631;28;20456;-69
2022/04/15 06:45:20;;;;;;;66.10;43.53;;;12.90;96.80;;;;;;5073336;28;20855;-69
2022/04/15 06:47:47;;;;;;;80.33;46.17;;;12.90;96.90;;;;;;5073593;28;20502;-69
2022/04/15 06:50:16;;;;;;;73.03;47.03;;;12.90;97.10;;;;;;5073291;28;20484;-69
2022/04/15 06:52:43;;;;;;;89.77;48.27;;;13.00;97.20;;;;;;5073614;28;20472;-70
2022/04/15 06:55:10;;;;;;;86.47;50.47;;;13.00;97.20;;;;;;5073854;28;20437;-68
2022/04/15 06:57:36;;;;;;;87.37;51.47;;;13.00;96.70;;;;;;5073790;28;20448;-68
2022/04/15 07:00:05;;;;;;;78.50;48.87;;;13.00;96.70;;;;;;5074015;28;20458;-69
2022/04/15 07:02:33;;;;;;;64.80;44.47;;;13.00;96.80;;;;;;5074362;28;20483;-69
2022/04/15 07:05:00;;;;;;;54.33;36.97;;;13.00;96.80;;;;;;5074672;28;20451;-69
2022/04/15 07:07:28;;;;;;;41.20;30.37;;;13.00;96.90;;;;;;5075807;28;20456;-69
2022/04/15 07:09:55;;;;;;;39.30;28.20;;;13.00;96.70;;;;;;5079254;28;20445;-69
2022/04/15 07:12:22;;;;;;;34.50;26.20;;;13.00;96.80;;;;;;5079666;28;20464;-69
2022/04/15 07:14:49;;;;;;;37.67;27.13;;;13.00;96.80;;;;;;5079331;28;20444;-69
2022/04/15 07:17:15;;;;;;;37.30;28.47;;;13.00;96.80;;;;;;5080526;28;20448;-69
2022/04/15 07:19:42;;;;;;;39.10;28.43;;;13.00;96.60;;;;;;5080381;28;20452;-69
2022/04/15 07:22:09;;;;;;;39.20;28.00;;;13.00;96.70;;;;;;5077166;28;20469;-69
2022/04/15 07:24:37;;;;;;;43.10;28.73;;;13.10;96.80;;;;;;5076952;28;20955;-69
2022/04/15 07:27:04;;;;;;;34.40;26.63;;;13.10;96.70;;;;;;5077255;28;20458;-69
2022/04/15 07:29:31;;;;;;;30.93;24.07;;;13.10;96.70;;;;;;5076886;28;20447;-69
2022/04/15 07:31:58;;;;;;;28.00;24.23;;;13.10;96.80;;;;;;5077137;28;20484;-69
2022/04/15 07:34:26;;;;;;;28.13;22.20;;;13.10;96.60;;;;;;5076807;28;20480;-69
2022/04/15 07:36:57;;;;;;;35.07;26.10;;;13.10;96.20;;;;;;5076754;28;20856;-69
2022/04/15 07:39:24;;;;;;;42.90;32.43;;;13.10;96.20;;;;;;5076475;28;20942;-69
2022/04/15 07:41:53;;;;;;;42.00;28.80;;;13.20;96.20;;;;;;5076658;28;20465;-69
2022/04/15 07:44:20;;;;;;;30.90;25.00;;;13.20;96.20;;;;;;5076764;28;20450;-69
2022/04/15 07:46:47;;;;;;;31.27;23.80;;;13.30;96.30;;;;;;5076883;28;20472;-69
2022/04/15 07:49:15;;;;;;;27.93;21.77;;;13.30;96.20;;;;;;5077133;28;20444;-69
2022/04/15 07:51:43;;;;;;;26.83;21.40;;;13.40;96.10;;;;;;5076891;28;20520;-69
2022/04/15 07:54:10;;;;;;;26.97;22.37;;;13.40;96.00;;;;;;5076257;28;20956;-69
2022/04/15 07:56:38;;;;;;;27.37;20.40;;;13.40;95.90;;;;;;5077055;28;20452;-69
2022/04/15 07:59:07;;;;;;;30.67;23.40;;;13.40;95.80;;;;;;5076156;28;20966;-69
2022/04/15 08:01:34;;;;;;;27.30;22.47;;;13.40;95.70;;;;;;5076450;28;20526;-69
2022/04/15 08:04:01;;;;;;;29.30;23.03;;;13.40;95.60;;;;;;5076280;28;20956;-69
2022/04/15 08:06:29;;;;;;;31.67;23.40;;;13.50;95.70;;;;;;5076303;28;20444;-69
2022/04/15 08:08:57;;;;;;;31.00;22.93;;;13.50;95.70;;;;;;5076318;28;20441;-69
2022/04/15 08:11:25;;;;;;;29.43;24.10;;;13.50;95.60;;;;;;5075989;28;20487;-69
2022/04/15 08:13:52;;;;;;;32.27;25.37;;;13.50;95.20;;;;;;5075843;28;20948;-69
2022/04/15 08:16:20;;;;;;;38.60;31.43;;;13.50;95.00;;;;;;5076207;28;20449;-69
2022/04/15 08:18:49;;;;;;;32.93;28.93;;;13.60;94.80;;;;;;5075769;28;20471;-69
2022/04/15 08:21:16;;;;;;;41.30;33.17;;;13.80;94.50;;;;;;5076507;28;20567;-69
2022/04/15 08:23:43;;;;;;;52.20;36.70;;;14.10;93.90;;;;;;5076058;28;20855;-69
2022/04/15 08:26:11;;;;;;;49.73;39.30;;;14.30;93.30;;;;;;5075946;28;20453;-69
2022/04/15 08:28:38;;;;;;;49.23;40.73;;;14.60;92.60;;;;;;5075590;28;21002;-69
2022/04/15 08:31:07;;;;;;;38.80;33.47;;;14.80;92.20;;;;;;5075653;28;20504;-70
2022/04/15 08:33:35;;;;;;;39.90;34.90;;;15.00;91.50;;;;;;5075421;28;20808;-70
2022/04/15 08:36:02;;;;;;;45.80;40.90;;;15.20;90.70;;;;;;5075623;28;20460;-70
2022/04/15 08:38:29;;;;;;;42.63;38.03;;;15.30;89.80;;;;;;5075666;28;20506;-70
2022/04/15 08:40:58;;;;;;;47.47;37.10;;;15.40;88.20;;;;;;5075583;28;20471;-70
2022/04/15 08:43:25;;;;;;;40.80;36.40;;;15.50;87.60;;;;;;5075650;28;20528;-70
2022/04/15 08:45:53;;;;;;;40.27;36.33;;;15.50;87.40;;;;;;5076070;28;20463;-70
2022/04/15 08:48:20;;;;;;;37.67;33.93;;;15.60;86.30;;;;;;5075471;28;20544;-70
2022/04/15 08:50:50;;;;;;;39.20;35.27;;;15.50;85.30;;;;;;5075046;28;21030;-70
2022/04/15 08:53:17;;;;;;;41.70;37.23;;;15.50;84.90;;;;;;5076133;28;20456;-70
2022/04/15 08:55:43;;;;;;;36.53;33.03;;;15.60;84.10;;;;;;5075605;28;20539;-70
2022/04/15 08:58:10;;;;;;;37.13;33.53;;;15.70;84.10;;;;;;5074917;28;20844;-70
2022/04/15 09:00:38;;;;;;;37.07;33.17;;;15.80;84.10;;;;;;5075211;28;20448;-70
2022/04/15 09:03:06;;;;;;;35.20;31.70;;;15.90;83.70;;;;;;5074696;28;20496;-70
2022/04/15 09:05:33;;;;;;;37.60;33.90;;;16.10;83.10;;;;;;5074804;28;20824;-70
2022/04/15 09:08:06;;;;;;;34.57;31.30;;;16.30;81.10;;;;;;5075106;28;20452;-70
2022/04/15 09:10:34;;;;;;;34.10;30.90;;;16.60;79.80;;;;;;5075107;28;20433;-70
2022/04/15 09:13:01;;;;;;;34.83;31.53;;;16.80;79.00;;;;;;5074653;28;20955;-70
2022/04/15 09:15:28;;;;;;;33.60;30.40;;;16.90;78.50;;;;;;5074954;28;20871;-70
2022/04/15 09:17:59;;;;;;;32.30;29.23;;;17.20;77.80;;;;;;5074720;28;20982;-70
2022/04/15 09:20:29;;;;;;;30.63;27.90;;;17.40;76.80;;;;;;5074663;28;20522;-70
2022/04/15 09:22:57;;;;;;;33.13;30.13;;;17.60;72.90;;;;;;5075030;28;20436;-70
2022/04/15 09:25:29;;;;;;;27.33;24.83;;;17.60;72.70;;;;;;5074720;28;20460;-70
2022/04/15 09:27:58;;;;;;;27.50;25.10;;;17.80;73.00;;;;;;5074925;28;20433;-70
2022/04/15 09:30:36;;;;;;;24.80;22.70;;;18.00;72.70;;;;;;5074035;28;20468;-70
2022/04/15 09:33:04;;;;;;;23.47;21.07;;;18.30;72.10;;;;;;5074615;28;20452;-70
2022/04/15 09:35:31;;;;;;;20.80;18.90;;;18.80;71.50;;;;;;5074637;28;20449;-70
2022/04/15 09:38:03;;;;;;;21.33;19.40;;;19.00;65.80;;;;;;5074505;28;20453;-70
2022/04/15 09:40:35;;;;;;;21.60;19.60;;;19.10;65.20;;;;;;5074460;28;20460;-70
2022/04/15 09:43:04;;;;;;;20.67;18.77;;;19.10;63.20;;;;;;5074214;28;20776;-70
2022/04/15 09:45:34;;;;;;;20.90;19.10;;;19.10;62.50;;;;;;5074388;28;20441;-70
2022/04/15 09:48:02;;;;;;;19.87;18.17;;;19.00;62.50;;;;;;5074391;28;20495;-70
2022/04/15 09:50:31;;;;;;;21.33;19.33;;;19.00;62.50;;;;;;5074297;28;20456;-70
2022/04/15 09:53:08;;;;;;;19.60;17.70;;;19.00;63.00;;;;;;5073858;28;21017;-70
2022/04/15 09:55:39;;;;;;;17.50;15.70;;;19.20;62.50;;;;;;5074129;28;20432;-70
2022/04/15 09:58:10;;;;;;;17.60;16.00;;;19.60;61.50;;;;;;5074200;28;20464;-70
2022/04/15 10:00:37;;;;;;;15.97;14.50;;;19.90;61.00;;;;;;5074080;28;20471;-70
2022/04/15 10:03:07;;;;;;;16.43;14.83;;;20.40;58.90;;;;;;5073961;28;20444;-70
2022/04/15 10:05:36;;;;;;;14.53;13.10;;;20.80;57.90;;;;;;5073983;28;20432;-70
2022/04/15 10:08:03;;;;;;;10.53;9.63;;;21.30;57.30;;;;;;5073855;28;20465;-70
2022/04/15 10:10:31;;;;;;;9.43;8.53;;;21.60;54.00;;;;;;5073968;28;20484;-70
2022/04/15 10:13:01;;;;;;;9.97;9.10;;;21.80;53.20;;;;;;5073573;28;20515;-70
2022/04/15 10:15:30;;;;;;;10.70;9.70;;;21.90;52.00;;;;;;5073854;28;20444;-70
2022/04/15 10:17:57;;;;;;;8.73;7.97;;;22.00;51.70;;;;;;5073763;28;20970;-70
2022/04/15 10:20:26;;;;;;;7.30;6.20;;;22.10;51.40;;;;;;5073424;28;20522;-70
2022/04/15 10:22:54;;;;;;;6.30;5.73;;;22.30;50.60;;;;;;5073603;28;20473;-70
2022/04/15 10:25:21;;;;;;;6.60;6.03;;;22.60;50.00;;;;;;5073698;28;20449;-70
2022/04/15 10:27:49;;;;;;;6.00;5.40;;;22.80;49.20;;;;;;5073413;28;20440;-70
2022/04/15 10:30:19;;;;;;;5.40;4.90;;;23.30;49.50;;;;;;5073833;28;20448;-70
2022/04/15 10:32:51;;;;;;;4.87;4.47;;;23.90;48.90;;;;;;5073495;28;20480;-71
2022/04/15 10:35:22;;;;;;;4.70;4.27;;;24.50;48.20;;;;;;5073790;28;20451;-70
2022/04/15 10:37:55;;;;;;;4.33;4.03;;;25.20;45.00;;;;;;5073278;28;20932;-71
2022/04/15 10:40:24;;;;;;;4.60;4.17;;;25.50;43.60;;;;;;5073668;28;20441;-71
2022/04/15 10:42:51;;;;;;;4.73;4.17;;;25.70;42.70;;;;;;5072264;28;20975;-70
2022/04/15 10:45:34;;;;;;;4.90;4.50;;;26.10;42.30;;;;;;5073516;28;20457;-71
2022/04/15 10:48:02;;;;;;;3.77;3.43;;;26.40;40.70;;;;;;5073162;28;20917;-71
2022/04/15 10:50:31;;;;;;;4.73;4.33;;;26.60;40.10;;;;;;5073365;28;20815;-71
2022/04/15 10:53:17;;;;;;;3.70;3.50;;;26.90;39.00;;;;;;5073538;28;20515;-71
2022/04/15 10:55:45;;;;;;;4.67;4.27;;;27.40;38.30;;;;;;5073454;28;20465;-71
2022/04/15 10:58:13;;;;;;;4.37;3.87;;;27.70;36.60;;;;;;5073254;28;20823;-71
2022/04/15 11:03:28;;;;;;;3.93;3.63;;;28.70;33.60;;;;;;5073486;28;20405;-71
2022/04/15 11:05:57;;;;;;;4.43;4.03;;;29.00;34.30;;;;;;5073119;28;20445;-71
2022/04/15 11:08:26;;;;;;;4.50;4.20;;;29.10;33.10;;;;;;5073062;28;20986;-71
2022/04/15 11:11:04;;;;;;;5.07;4.57;;;29.00;33.50;;;;;;5072873;28;20983;-71
2022/04/15 11:13:51;;;;;;;4.80;4.50;;;29.10;33.00;;;;;;5073345;28;20425;-71
2022/04/15 11:16:22;;;;;;;5.73;5.30;;;29.10;32.40;;;;;;5072998;28;20947;-71
2022/04/15 11:18:51;;;;;;;6.00;5.23;;;28.70;32.80;;;;;;5073076;28;20465;-71
2022/04/15 11:21:19;;;;;;;6.33;5.83;;;28.00;33.60;;;;;;5072999;28;21046;-71
2022/04/15 11:23:51;;;;;;;7.23;5.53;;;27.60;34.40;;;;;;5073249;28;20444;-71
2022/04/15 11:26:19;;;;;;;4.43;4.13;;;27.90;34.00;;;;;;5072898;28;20818;-71
2022/04/15 11:28:47;;;;;;;4.20;3.90;;;28.10;33.30;;;;;;5072846;28;20453;-71
2022/04/15 11:31:26;;;;;;;4.60;4.20;;;28.70;33.20;;;;;;5072510;28;21014;-71
2022/04/15 11:33:54;;;;;;;5.37;4.97;;;29.10;32.00;;;;;;5072678;28;20920;-71
2022/04/15 11:36:22;;;;;;;5.70;4.83;;;28.60;31.90;;;;;;5073029;28;20870;-71
2022/04/15 11:38:51;;;;;;;5.23;4.83;;;28.00;33.00;;;;;;5073029;28;20551;-71
2022/04/15 11:41:19;;;;;;;5.00;4.60;;;27.60;34.80;;;;;;5072924;28;20468;-71
2022/04/15 11:43:56;;;;;;;4.70;4.30;;;28.10;35.30;;;;;;5072878;28;20440;-71
2022/04/15 11:46:25;;;;;;;5.30;4.90;;;28.60;33.50;;;;;;5073074;28;20451;-71
2022/04/15 11:48:54;;;;;;;6.00;5.50;;;28.70;32.90;;;;;;5072981;28;20452;-71
2022/04/15 11:51:23;;;;;;;5.13;4.60;;;28.80;32.30;;;;;;5072367;28;20980;-71
2022/04/15 11:53:50;;;;;;;8.00;5.37;;;28.90;31.80;;;;;;5074173;28;20451;-71
2022/04/15 11:56:17;;;;;;;5.43;5.03;;;29.30;31.90;;;;;;5076400;28;20448;-68
2022/04/15 11:58:45;;;;;;;6.30;5.90;;;30.00;32.00;;;;;;5076565;28;20440;-68
2022/04/15 12:01:12;;;;;;;8.20;7.70;;;30.90;30.00;;;;;;5076457;28;20464;-68
2022/04/15 12:03:43;;;;;;;7.90;7.30;;;31.20;29.00;;;;;;5076447;28;20439;-69
2022/04/15 12:06:10;;;;;;;9.27;8.57;;;31.20;29.20;;;;;;5076420;28;20432;-69
2022/04/15 12:08:37;;;;;;;8.53;7.93;;;31.00;28.60;;;;;;5076240;28;20808;-69
2022/04/15 12:11:03;;;;;;;7.87;7.27;;;30.60;28.80;;;;;;5076194;28;20475;-69
2022/04/15 12:13:30;;;;;;;6.33;5.83;;;30.00;29.10;;;;;;5076274;28;20526;-69
2022/04/15 12:15:57;;;;;;;8.10;7.50;;;29.80;30.10;;;;;;5076110;28;20479;-69
2022/04/15 12:18:24;;;;;;;7.00;6.30;;;30.20;30.00;;;;;;5076618;28;20630;-69
2022/04/15 12:20:52;;;;;;;5.10;4.67;;;31.00;29.00;;;;;;5076631;28;20472;-69
2022/04/15 12:23:20;;;;;;;5.40;5.00;;;32.00;27.30;;;;;;5076369;28;20452;-69
2022/04/15 12:26:09;;;;;;;6.03;5.60;;;32.80;26.90;;;;;;5075965;28;20550;-69
2022/04/15 12:31:32;;;;;;;6.73;6.13;;;32.50;27.30;;;;;;5075635;28;20443;-69
2022/04/15 12:33:59;;;;;;;5.97;5.47;;;32.40;26.30;;;;;;5075538;28;20960;-69
2022/04/15 12:36:39;;;;;;;6.87;6.30;;;32.10;26.50;;;;;;5076070;28;20448;-69
2022/04/15 12:39:07;;;;;;;9.57;8.87;;;31.60;27.50;;;;;;5075485;28;20489;-69
2022/04/15 12:41:42;;;;;;;11.30;10.50;;;30.90;28.30;;;;;;5075676;28;20464;-69
2022/04/15 12:44:14;;;;;;;13.10;12.00;;;30.30;29.20;;;;;;5075302;28;20826;-69